Time;durP1;ratioP1;P1;durP2;ratioP2;P2;SDS_P1;SDS_P2;PMS_P1;PMS_P2;Temp;Humidity;BMP_temperature;BMP_pressure;BME280_temperature;BME280_humidity;BME280_pressure;Samples;Min_cycle;Max_cycle;Signal;HPM_P1;HPM_P2
2023/07/15 00:00:47;;;;;;;0.73;0.38;;;;;;;27.78;96.00;100480.41;10441301;28;20510;-84
2023/07/15 00:05:49;;;;;;;0.47;0.35;;;;;;;27.65;95.99;100479.34;10471373;28;20132;-83
2023/07/15 00:10:51;;;;;;;0.30;0.20;;;;;;;27.57;96.25;100473.59;10437264;28;20522;-84
2023/07/15 00:15:53;;;;;;;0.38;0.20;;;;;;;27.48;95.73;100473.13;10436805;28;20053;-83
2023/07/15 00:20:55;;;;;;;0.20;0.17;;;;;;;27.45;97.06;100470.63;10436110;28;20053;-83
2023/07/15 00:25:56;;;;;;;0.38;0.30;;;;;;;27.45;97.39;100457.41;10464417;28;20052;-83
2023/07/15 00:30:58;;;;;;;0.00;0.00;;;;;;;27.61;97.03;100457.47;10436691;28;20053;-83
2023/07/15 00:36:01;;;;;;;0.15;0.10;;;;;;;27.43;96.60;100454.00;10452509;28;20041;-83
2023/07/15 00:41:09;;;;;;;0.52;0.40;;;;;;;27.55;96.34;100453.38;10452852;28;20499;-83
2023/07/15 00:46:26;;;;;;;2.22;0.50;;;;;;;27.47;95.91;100462.66;10441546;28;20037;-84
2023/07/15 00:51:31;;;;;;;0.30;0.20;;;;;;;27.38;96.07;100456.88;10432349;28;20048;-83
2023/07/15 00:56:35;;;;;;;0.47;0.32;;;;;;;27.53;95.79;100454.38;10452676;28;20131;-83
2023/07/15 01:01:38;;;;;;;0.68;0.38;;;;;;;27.66;96.12;100444.00;10444079;28;20045;-84
2023/07/15 01:06:41;;;;;;;0.03;0.03;;;;;;;27.49;95.75;100447.53;10459294;28;20045;-83
2023/07/15 01:11:43;;;;;;;0.13;0.13;;;;;;;27.58;95.69;100446.22;10442699;28;20488;-83
2023/07/15 01:16:47;;;;;;;0.10;0.10;;;;;;;27.18;94.91;100444.66;10438104;28;20049;-82
2023/07/15 01:21:50;;;;;;;0.20;0.20;;;;;;;27.62;94.01;100442.44;10455566;28;20071;-83
2023/07/15 01:27:00;;;;;;;1.85;1.35;;;;;;;27.59;93.69;100435.53;10451121;28;20056;-83
2023/07/15 01:32:02;;;;;;;0.00;0.00;;;;;;;27.57;93.65;100433.91;10442742;28;20041;-83
2023/07/15 01:37:04;;;;;;;0.10;0.00;;;;;;;27.49;93.49;100432.53;10437336;28;20049;-83
2023/07/15 01:42:06;;;;;;;0.63;0.63;;;;;;;27.49;93.50;100440.47;10434228;28;20053;-82
2023/07/15 01:47:08;;;;;;;0.00;0.00;;;;;;;27.82;93.89;100438.75;10437350;28;20040;-83
2023/07/15 01:52:09;;;;;;;0.00;0.00;;;;;;;27.85;92.89;100434.13;10432015;28;20059;-83
2023/07/15 01:57:11;;;;;;;0.43;0.38;;;;;;;27.83;92.82;100445.75;10448397;28;20045;-83
2023/07/15 02:02:12;;;;;;;0.17;0.13;;;;;;;28.03;92.44;100436.72;10425969;28;20052;-83
2023/07/15 02:07:14;;;;;;;0.30;0.10;;;;;;;28.20;92.87;100434.94;10440019;28;20052;-83
2023/07/15 02:12:16;;;;;;;0.00;0.00;;;;;;;27.96;92.94;100424.78;10417441;28;20487;-83
2023/07/15 02:17:22;;;;;;;0.03;0.03;;;;;;;27.75;92.50;100427.63;10438210;28;20403;-83
2023/07/15 02:22:24;;;;;;;0.55;0.28;;;;;;;27.92;92.37;100409.97;10455334;28;20041;-83
2023/07/15 02:27:26;;;;;;;0.52;0.00;;;;;;;27.46;93.86;100416.81;10448019;28;20499;-83
2023/07/15 02:32:40;;;;;;;0.20;0.00;;;;;;;27.77;94.49;100423.09;10428468;28;20099;-84
2023/07/15 02:37:46;;;;;;;0.00;0.00;;;;;;;27.28;94.12;100423.03;10447056;28;20049;-83
2023/07/15 02:42:49;;;;;;;0.73;0.10;;;;;;;27.16;96.52;100425.38;10470089;28;20499;-83
2023/07/15 02:47:51;;;;;;;0.00;0.00;;;;;;;27.23;96.95;100425.91;10436894;28;20045;-83
2023/07/15 02:52:52;;;;;;;0.00;0.00;;;;;;;26.80;97.34;100420.19;10456836;28;20515;-83
2023/07/15 02:57:54;;;;;;;0.10;0.03;;;;;;;27.29;95.64;100424.75;10440494;28;20530;-83
2023/07/15 03:02:56;;;;;;;0.25;0.10;;;;;;;27.19;96.51;100430.50;10460157;28;20048;-83
2023/07/15 03:07:57;;;;;;;0.63;0.20;;;;;;;26.54;99.74;100433.72;10439635;28;20099;-83
2023/07/15 03:12:59;;;;;;;0.20;0.20;;;;;;;26.52;99.45;100448.75;10436879;28;20059;-83
2023/07/15 03:18:02;;;;;;;0.10;0.08;;;;;;;26.52;99.31;100451.41;10422672;28;20403;-83
2023/07/15 03:23:03;;;;;;;0.20;0.20;;;;;;;26.56;99.28;100452.97;10467675;28;20115;-83
2023/07/15 03:28:05;;;;;;;0.00;0.00;;;;;;;26.15;100.00;100461.06;10439463;28;20518;-83
2023/07/15 03:33:08;;;;;;;0.00;0.00;;;;;;;26.50;100.00;100458.53;10428571;28;20091;-83
2023/07/15 03:38:09;;;;;;;0.05;0.05;;;;;;;26.20;100.00;100461.69;10436926;28;20157;-83
2023/07/15 03:43:11;;;;;;;0.00;0.00;;;;;;;26.50;100.00;100455.91;10438636;28;20412;-83
2023/07/15 03:48:13;;;;;;;0.00;0.00;;;;;;;26.14;100.00;100456.72;10446671;28;20522;-83
2023/07/15 03:53:15;;;;;;;0.35;0.30;;;;;;;26.07;100.00;100460.53;10437612;28;20379;-83
2023/07/15 03:58:17;;;;;;;0.00;0.00;;;;;;;26.04;100.00;100444.81;10457838;28;20051;-83
2023/07/15 04:03:18;;;;;;;0.22;0.10;;;;;;;26.16;100.00;100446.94;10461010;28;20041;-83
2023/07/15 04:08:20;;;;;;;0.05;0.05;;;;;;;26.11;100.00;100451.56;10455908;28;20083;-83
2023/07/15 04:13:22;;;;;;;0.20;0.10;;;;;;;26.10;100.00;100453.38;10439286;28;20056;-83
2023/07/15 04:18:23;;;;;;;0.00;0.00;;;;;;;26.20;100.00;100455.59;10446772;28;20052;-83
2023/07/15 04:23:25;;;;;;;0.20;0.20;;;;;;;26.17;100.00;100451.31;10472138;28;20060;-83
2023/07/15 04:28:27;;;;;;;0.00;0.00;;;;;;;26.08;100.00;100459.66;10456169;28;20056;-83
2023/07/15 04:33:29;;;;;;;0.10;0.10;;;;;;;26.39;100.00;100461.69;10452012;28;20049;-83
2023/07/15 04:38:30;;;;;;;0.20;0.20;;;;;;;26.51;100.00;100454.13;10456852;28;20056;-83
2023/07/15 04:43:32;;;;;;;0.00;0.00;;;;;;;26.42;100.00;100456.28;10435847;28;20044;-83
2023/07/15 04:48:34;;;;;;;0.40;0.20;;;;;;;26.60;100.00;100454.53;10440749;28;20044;-83
2023/07/15 04:53:42;;;;;;;0.00;0.00;;;;;;;26.67;100.00;100454.22;10435057;28;20067;-83
2023/07/15 04:58:44;;;;;;;0.35;0.20;;;;;;;26.59;100.00;100455.47;10454946;28;20132;-83
2023/07/15 05:03:46;;;;;;;0.52;0.30;;;;;;;26.88;100.00;100463.78;10451907;28;20049;-83
2023/07/15 05:08:47;;;;;;;0.10;0.10;;;;;;;26.74;100.00;100461.78;10466253;28;20045;-83
2023/07/15 05:13:49;;;;;;;0.00;0.00;;;;;;;26.92;100.00;100467.97;10450342;28;20044;-83
2023/07/15 05:18:50;;;;;;;1.45;0.20;;;;;;;27.08;100.00;100464.56;10456260;28;20049;-83
2023/07/15 05:23:52;;;;;;;0.05;0.05;;;;;;;27.18;100.00;100464.97;10452096;28;20051;-83
2023/07/15 05:28:53;;;;;;;0.08;0.00;;;;;;;27.09;100.00;100476.84;10464891;28;20043;-83
2023/07/15 05:33:55;;;;;;;0.10;0.10;;;;;;;27.13;100.00;100477.53;10451898;28;20048;-83
2023/07/15 05:38:57;;;;;;;3.00;0.55;;;;;;;27.47;100.00;100487.28;10439257;28;20044;-83
2023/07/15 05:43:58;;;;;;;0.17;0.17;;;;;;;27.63;100.00;100476.75;10462224;28;20131;-83
2023/07/15 05:49:03;;;;;;;1.13;0.80;;;;;;;27.40;100.00;100475.28;10453873;28;20136;-83
2023/07/15 05:54:04;;;;;;;0.32;0.15;;;;;;;28.05;100.00;100479.00;10440729;28;20395;-83
2023/07/15 05:59:06;;;;;;;0.40;0.30;;;;;;;27.73;100.00;100482.44;10452165;28;20049;-83
2023/07/15 06:04:08;;;;;;;0.05;0.00;;;;;;;28.07;100.00;100458.63;10452682;28;20041;-83
2023/07/15 06:09:10;;;;;;;0.50;0.25;;;;;;;28.59;100.00;100470.75;10440034;28;20143;-83
2023/07/15 06:14:11;;;;;;;0.88;0.40;;;;;;;28.40;100.00;100471.81;10435661;28;20049;-83
2023/07/15 06:19:13;;;;;;;0.10;0.10;;;;;;;28.26;100.00;100474.38;10433084;28;20407;-83
2023/07/15 06:24:15;;;;;;;0.17;0.10;;;;;;;28.33;100.00;100470.44;10457466;28;20770;-83
2023/07/15 06:29:16;;;;;;;1.60;0.10;;;;;;;28.36;100.00;100474.69;10449988;28;20052;-83
2023/07/15 06:34:18;;;;;;;0.40;0.38;;;;;;;28.52;100.00;100482.63;10455167;28;20041;-83
2023/07/15 06:39:19;;;;;;;0.00;0.00;;;;;;;28.85;100.00;100487.00;10444119;28;20053;-84
2023/07/15 06:44:21;;;;;;;0.00;0.00;;;;;;;28.91;100.00;100466.28;10423371;28;20051;-83
2023/07/15 06:49:23;;;;;;;0.00;0.00;;;;;;;28.81;100.00;100486.31;10438026;28;20056;-82
2023/07/15 06:54:24;;;;;;;0.25;0.13;;;;;;;28.59;100.00;100492.81;10449308;28;20041;-82
2023/07/15 06:59:26;;;;;;;0.55;0.40;;;;;;;29.31;100.00;100494.91;10427074;28;20076;-83
2023/07/15 07:04:28;;;;;;;0.00;0.00;;;;;;;30.19;100.00;100480.78;10471435;28;20047;-83
2023/07/15 07:09:29;;;;;;;0.20;0.13;;;;;;;30.40;100.00;100489.16;10473664;28;20068;-83
2023/07/15 07:14:31;;;;;;;0.10;0.10;;;;;;;30.21;100.00;100489.47;10446461;28;20071;-83
2023/07/15 07:19:35;;;;;;;0.00;0.00;;;;;;;30.24;100.00;100491.97;10456944;28;20393;-83
2023/07/15 07:24:37;;;;;;;0.08;0.08;;;;;;;30.23;100.00;100493.75;10469243;28;20487;-84
2023/07/15 07:29:39;;;;;;;0.22;0.20;;;;;;;30.99;100.00;100485.34;10456529;28;20051;-84
2023/07/15 07:34:40;;;;;;;0.35;0.30;;;;;;;30.63;100.00;100490.38;10435552;28;20049;-83
2023/07/15 07:39:42;;;;;;;0.10;0.10;;;;;;;30.76;100.00;100497.53;10440580;28;20041;-83
2023/07/15 07:44:44;;;;;;;0.05;0.00;;;;;;;30.46;100.00;100506.53;10457717;28;20487;-83
2023/07/15 07:49:45;;;;;;;1.10;0.55;;;;;;;30.78;100.00;100506.28;10456266;28;20099;-84
2023/07/15 07:54:47;;;;;;;0.03;0.00;;;;;;;30.22;100.00;100509.78;10468467;28;20407;-83
2023/07/15 07:59:48;;;;;;;0.17;0.17;;;;;;;30.34;100.00;100514.34;10420756;28;20482;-84
2023/07/15 08:04:50;;;;;;;0.25;0.00;;;;;;;31.56;100.00;100510.81;10454424;28;20044;-85
2023/07/15 08:09:52;;;;;;;0.75;0.20;;;;;;;29.89;100.00;100518.91;10421981;28;20392;-85
2023/07/15 08:14:54;;;;;;;0.10;0.00;;;;;;;30.24;100.00;100521.19;10453727;28;20078;-84
2023/07/15 08:19:55;;;;;;;0.00;0.00;;;;;;;29.98;100.00;100526.31;10453136;28;20049;-82
2023/07/15 08:24:57;;;;;;;3.72;0.40;;;;;;;30.32;100.00;100518.91;10434093;28;20048;-84
2023/07/15 08:29:59;;;;;;;0.20;0.20;;;;;;;30.21;100.00;100522.22;10434148;28;20139;-83
2023/07/15 08:35:04;;;;;;;0.00;0.00;;;;;;;30.68;100.00;100517.50;10432583;28;20045;-84
2023/07/15 08:40:07;;;;;;;0.22;0.20;;;;;;;31.04;100.00;100519.63;10436300;28;20503;-83
2023/07/15 08:45:09;;;;;;;0.00;0.00;;;;;;;30.79;100.00;100527.44;10436042;28;20136;-83
2023/07/15 08:50:12;;;;;;;0.55;0.32;;;;;;;31.33;100.00;100542.50;10436157;28;20048;-83
2023/07/15 08:55:18;;;;;;;0.00;0.00;;;;;;;31.02;100.00;100525.91;10454219;28;20045;-83
2023/07/15 09:00:19;;;;;;;0.40;0.40;;;;;;;30.58;100.00;100540.31;10430005;28;20037;-83
2023/07/15 09:05:21;;;;;;;0.10;0.10;;;;;;;31.30;100.00;100550.72;10468424;28;20079;-83
2023/07/15 09:10:23;;;;;;;0.13;0.13;;;;;;;31.39;100.00;100562.53;10455137;28;20104;-82
2023/07/15 09:15:25;;;;;;;0.40;0.30;;;;;;;30.13;100.00;100571.47;10437307;28;20052;-82
2023/07/15 09:20:26;;;;;;;0.50;0.38;;;;;;;30.66;100.00;100575.22;10433549;28;20060;-84
2023/07/15 09:25:29;;;;;;;0.00;0.00;;;;;;;31.46;100.00;100578.97;10467368;28;20041;-84
2023/07/15 09:30:30;;;;;;;0.17;0.17;;;;;;;30.65;100.00;100589.47;10435285;28;20415;-83
2023/07/15 09:35:41;;;;;;;0.17;0.17;;;;;;;30.24;100.00;100600.88;10451597;28;20037;-83
2023/07/15 09:40:43;;;;;;;0.30;0.10;;;;;;;30.43;100.00;100610.34;10469441;28;20069;-83
2023/07/15 09:45:45;;;;;;;0.43;0.10;;;;;;;30.48;100.00;100619.75;10444181;28;20037;-83
2023/07/15 09:50:47;;;;;;;0.17;0.17;;;;;;;30.22;100.00;100627.56;10450217;28;20072;-83
2023/07/15 09:55:49;;;;;;;0.00;0.00;;;;;;;29.89;100.00;100633.09;10457881;28;20116;-82
2023/07/15 10:00:52;;;;;;;0.03;0.03;;;;;;;29.98;100.00;100613.09;10482029;28;20045;-83
2023/07/15 10:05:54;;;;;;;0.10;0.10;;;;;;;30.61;100.00;100600.41;10444588;28;20041;-85
2023/07/15 10:10:57;;;;;;;0.05;0.05;;;;;;;30.89;100.00;100585.34;10448094;28;20502;-84
2023/07/15 10:16:00;;;;;;;0.20;0.10;;;;;;;30.43;100.00;100589.09;10465304;28;20136;-83
2023/07/15 10:21:03;;;;;;;0.43;0.32;;;;;;;30.72;100.00;100589.09;10464674;28;20135;-84
2023/07/15 10:26:07;;;;;;;0.10;0.10;;;;;;;30.98;100.00;100590.91;10476656;28;20147;-85
2023/07/15 10:31:11;;;;;;;0.03;0.03;;;;;;;31.02;100.00;100587.09;10440216;28;20414;-85
2023/07/15 10:36:37;;;;;;;0.10;0.10;;;;;;;30.94;100.00;100573.44;10447294;28;20499;-84
2023/07/15 10:41:43;;;;;;;0.00;0.00;;;;;;;30.95;100.00;100569.81;10460495;28;20052;-84
2023/07/15 10:47:06;;;;;;;0.63;0.52;;;;;;;31.66;100.00;100592.75;10446660;28;20052;-84
2023/07/15 10:52:08;;;;;;;0.00;0.00;;;;;;;32.30;100.00;100584.78;10469012;28;20041;-84
2023/07/15 10:57:12;;;;;;;0.30;0.20;;;;;;;33.18;100.00;100573.06;10447014;28;20515;-83
2023/07/15 11:02:14;;;;;;;0.00;0.00;;;;;;;33.44;100.00;100575.63;10463109;28;20204;-82
2023/07/15 11:07:16;;;;;;;0.00;0.00;;;;;;;33.03;100.00;100571.53;10438330;28;20037;-82
2023/07/15 11:12:17;;;;;;;0.00;0.00;;;;;;;33.67;100.00;100562.31;10437154;28;20068;-82
2023/07/15 11:17:19;;;;;;;0.43;0.32;;;;;;;33.25;100.00;100564.63;10445499;28;20049;-82
2023/07/15 11:22:21;;;;;;;0.10;0.10;;;;;;;31.80;100.00;100542.06;10439843;28;20045;-82
2023/07/15 11:27:23;;;;;;;0.08;0.08;;;;;;;32.25;100.00;100539.81;10425617;28;20052;-83
2023/07/15 11:32:28;;;;;;;0.10;0.10;;;;;;;33.47;100.00;100548.69;10456588;28;20049;-83
2023/07/15 11:37:29;;;;;;;0.20;0.10;;;;;;;32.54;100.00;100539.50;10456297;28;20036;-83
2023/07/15 11:42:35;;;;;;;0.00;0.00;;;;;;;32.75;100.00;100541.56;10471450;28;20056;-82
2023/07/15 11:47:36;;;;;;;0.00;0.00;;;;;;;32.31;100.00;100554.50;10421953;28;20044;-82
2023/07/15 11:52:40;;;;;;;0.57;0.30;;;;;;;32.11;100.00;100564.72;10456682;28;20060;-82
2023/07/15 11:57:51;;;;;;;0.47;0.20;;;;;;;31.73;100.00;100564.75;10455003;28;20048;-82
2023/07/15 12:02:53;;;;;;;0.45;0.35;;;;;;;32.97;100.00;100551.53;10471345;28;20088;-82
2023/07/15 12:07:58;;;;;;;0.03;0.03;;;;;;;32.47;100.00;100548.91;10453604;28;20053;-82
2023/07/15 12:13:00;;;;;;;0.00;0.00;;;;;;;32.19;100.00;100544.69;10420922;28;20068;-82
2023/07/15 12:18:01;;;;;;;0.00;0.00;;;;;;;32.42;100.00;100540.41;10437592;28;20499;-83
2023/07/15 12:23:03;;;;;;;0.57;0.15;;;;;;;32.21;100.00;100543.63;10453768;28;20099;-83
2023/07/15 12:28:05;;;;;;;0.00;0.00;;;;;;;31.28;100.00;100555.28;10455989;28;20561;-82
2023/07/15 12:33:06;;;;;;;0.00;0.00;;;;;;;32.30;100.00;100530.59;10440006;28;20063;-84
2023/07/15 12:38:08;;;;;;;0.10;0.10;;;;;;;33.22;100.00;100522.97;10455035;28;20053;-84
2023/07/15 12:43:10;;;;;;;0.17;0.15;;;;;;;33.09;100.00;100517.75;10437171;28;20053;-85
2023/07/15 12:48:12;;;;;;;0.08;0.08;;;;;;;32.42;100.00;100519.09;10437051;28;20064;-85
2023/07/15 12:53:14;;;;;;;0.50;0.20;;;;;;;33.68;100.00;100505.28;10453382;28;20048;-85
2023/07/15 12:58:17;;;;;;;0.10;0.10;;;;;;;34.08;100.00;100499.44;10433392;28;20091;-85
2023/07/15 13:03:18;;;;;;;0.10;0.00;;;;;;;33.11;100.00;100499.78;10451979;28;20511;-86
2023/07/15 13:08:20;;;;;;;0.00;0.00;;;;;;;33.14;100.00;100494.22;10435850;28;20048;-85
2023/07/15 13:13:22;;;;;;;0.10;0.03;;;;;;;33.56;100.00;100487.50;10436593;28;20049;-85
2023/07/15 13:18:24;;;;;;;0.30;0.30;;;;;;;33.53;100.00;100480.59;10435763;28;20064;-85
2023/07/15 13:23:25;;;;;;;0.10;0.10;;;;;;;33.19;100.00;100489.38;10433943;28;20052;-84
2023/07/15 13:28:27;;;;;;;0.00;0.00;;;;;;;33.81;100.00;100481.94;10434809;28;20407;-85
2023/07/15 13:33:29;;;;;;;1.02;0.30;;;;;;;33.45;100.00;100481.22;10436247;28;20088;-84
2023/07/15 13:38:30;;;;;;;0.28;0.10;;;;;;;33.50;100.00;100471.00;10431936;28;20055;-85
2023/07/15 13:43:32;;;;;;;0.08;0.08;;;;;;;33.22;100.00;100470.47;10438906;28;20120;-85
2023/07/15 13:48:35;;;;;;;0.43;0.40;;;;;;;33.77;100.00;100459.13;10434518;28;20060;-86
2023/07/15 13:53:36;;;;;;;0.30;0.10;;;;;;;33.44;100.00;100479.50;10444249;28;20052;-84
2023/07/15 13:58:38;;;;;;;0.00;0.00;;;;;;;33.39;100.00;100476.34;10450526;28;20048;-84
2023/07/15 14:03:39;;;;;;;0.00;0.00;;;;;;;34.16;100.00;100475.63;10433518;28;20055;-85
2023/07/15 14:08:41;;;;;;;0.10;0.10;;;;;;;33.50;100.00;100471.00;10466868;28;20044;-85
2023/07/15 14:13:43;;;;;;;0.00;0.00;;;;;;;32.88;100.00;100462.34;10453572;28;20048;-86
2023/07/15 14:18:44;;;;;;;0.00;0.00;;;;;;;32.96;100.00;100439.56;10435830;28;20056;-85
2023/07/15 14:23:48;;;;;;;0.43;0.20;;;;;;;32.76;100.00;100436.56;10434687;28;20056;-86
2023/07/15 14:28:53;;;;;;;0.17;0.00;;;;;;;31.71;100.00;100428.19;10434177;28;20068;-84
2023/07/15 14:33:55;;;;;;;0.28;0.13;;;;;;;31.62;100.00;100427.00;10434118;28;20203;-86
2023/07/15 14:38:57;;;;;;;0.00;0.00;;;;;;;31.38;100.00;100421.59;10434271;28;20403;-86
2023/07/15 14:43:58;;;;;;;0.00;0.00;;;;;;;30.75;100.00;100418.72;10438185;28;20049;-85
2023/07/15 14:49:00;;;;;;;0.03;0.03;;;;;;;31.57;100.00;100414.00;10458395;28;20064;-85
2023/07/15 14:54:01;;;;;;;0.10;0.10;;;;;;;31.25;100.00;100422.44;10434104;28;20395;-85
2023/07/15 14:59:03;;;;;;;0.10;0.10;;;;;;;31.93;100.00;100415.03;10448463;28;20041;-85
2023/07/15 15:04:05;;;;;;;0.17;0.10;;;;;;;32.23;100.00;100397.81;10477326;28;20041;-85
2023/07/15 15:09:07;;;;;;;0.55;0.40;;;;;;;31.82;100.00;100403.44;10458145;28;20052;-85
2023/07/15 15:14:08;;;;;;;0.10;0.10;;;;;;;31.51;100.00;100406.47;10441278;28;20144;-85
2023/07/15 15:19:10;;;;;;;0.10;0.10;;;;;;;31.59;100.00;100412.09;10440522;28;20057;-84
2023/07/15 15:24:12;;;;;;;0.17;0.17;;;;;;;31.72;100.00;100414.78;10456246;28;20065;-84
2023/07/15 15:29:14;;;;;;;0.10;0.00;;;;;;;31.80;99.52;100416.88;10455810;28;20132;-86
2023/07/15 15:34:16;;;;;;;0.00;0.00;;;;;;;32.18;100.00;100426.59;10457208;28;20399;-85
2023/07/15 15:39:17;;;;;;;2.08;0.47;;;;;;;31.75;98.04;100424.38;10457639;28;20063;-84
2023/07/15 15:44:19;;;;;;;0.40;0.28;;;;;;;31.95;98.55;100420.25;10440513;28;20045;-82
2023/07/15 15:49:21;;;;;;;0.08;0.08;;;;;;;31.94;98.99;100438.06;10456695;28;20056;-82
2023/07/15 15:54:22;;;;;;;0.15;0.15;;;;;;;32.20;97.58;100435.31;10436269;28;20049;-82
2023/07/15 15:59:24;;;;;;;0.00;0.00;;;;;;;32.23;97.21;100428.94;10438000;28;20388;-82
2023/07/15 16:04:25;;;;;;;0.17;0.17;;;;;;;31.96;96.57;100411.28;10455662;28;20045;-83
2023/07/15 16:09:28;;;;;;;0.17;0.10;;;;;;;31.61;97.83;100418.16;10438789;28;20095;-82
2023/07/15 16:14:30;;;;;;;0.17;0.17;;;;;;;31.36;97.12;100407.53;10438502;28;20417;-82
2023/07/15 16:19:31;;;;;;;0.20;0.20;;;;;;;31.46;96.68;100403.28;10434371;28;20060;-83
2023/07/15 16:24:33;;;;;;;0.25;0.25;;;;;;;31.67;96.30;100406.25;10453841;28;20587;-82
2023/07/15 16:29:34;;;;;;;0.10;0.10;;;;;;;31.81;96.11;100426.59;10419964;28;20044;-82
2023/07/15 16:34:36;;;;;;;0.57;0.25;;;;;;;31.53;95.30;100411.66;10436780;28;20053;-82
2023/07/15 16:39:38;;;;;;;0.73;0.30;;;;;;;31.45;95.82;100417.56;10455118;28;20410;-81
2023/07/15 16:44:41;;;;;;;0.22;0.13;;;;;;;31.95;97.50;100410.47;10454547;28;20041;-82
2023/07/15 16:49:43;;;;;;;0.10;0.10;;;;;;;31.63;98.05;100410.06;10442303;28;20051;-82
2023/07/15 16:54:45;;;;;;;2.60;0.65;;;;;;;31.62;96.79;100409.22;10431557;28;20057;-82
2023/07/15 16:59:47;;;;;;;0.20;0.15;;;;;;;31.59;98.23;100414.75;10451568;28;20053;-82
2023/07/15 17:04:48;;;;;;;0.10;0.10;;;;;;;29.55;100.00;100528.91;10468753;28;20119;-82
2023/07/15 17:09:50;;;;;;;0.03;0.03;;;;;;;28.25;100.00;100545.00;10435800;28;20060;-83
2023/07/15 17:14:52;;;;;;;0.20;0.20;;;;;;;27.42;100.00;100555.47;10454383;28;20041;-83
2023/07/15 17:19:53;;;;;;;0.10;0.10;;;;;;;27.20;100.00;100547.69;10440185;28;20059;-83
2023/07/15 17:24:56;;;;;;;0.10;0.10;;;;;;;27.04;100.00;100552.91;10451457;28;20517;-82
2023/07/15 17:29:59;;;;;;;1.10;0.40;;;;;;;26.94;100.00;100519.91;10468759;28;20045;-83
2023/07/15 17:35:00;;;;;;;0.00;0.00;;;;;;;26.79;100.00;100538.22;10451689;28;20053;-82
2023/07/15 17:40:02;;;;;;;1.85;0.55;;;;;;;27.16;100.00;100552.28;10435744;28;20044;-82
2023/07/15 17:45:05;;;;;;;0.00;0.00;;;;;;;27.02;100.00;100560.03;10447128;28;20140;-83
2023/07/15 17:50:06;;;;;;;0.00;0.00;;;;;;;26.89;100.00;100546.56;10434853;28;20392;-82
2023/07/15 17:55:08;;;;;;;0.00;0.00;;;;;;;27.48;100.00;100535.75;10439461;28;20056;-82
2023/07/15 18:00:25;;;;;;;0.43;0.10;;;;;;;26.95;100.00;100548.94;10430787;28;20480;-82
2023/07/15 18:05:27;;;;;;;0.10;0.10;;;;;;;27.43;100.00;100530.72;10438292;28;20045;-82
2023/07/15 18:10:29;;;;;;;0.00;0.00;;;;;;;28.27;100.00;100542.25;10451721;28;20116;-82
2023/07/15 18:15:31;;;;;;;0.00;0.00;;;;;;;28.11;100.00;100540.44;10433363;28;20084;-82
2023/07/15 18:20:32;;;;;;;0.00;0.00;;;;;;;27.18;100.00;100550.44;10441235;28;20060;-83
2023/07/15 18:25:34;;;;;;;0.10;0.10;;;;;;;27.13;100.00;100584.19;10442185;28;20041;-82
2023/07/15 18:30:36;;;;;;;0.20;0.13;;;;;;;27.26;100.00;100591.50;10466235;28;20053;-82
2023/07/15 18:35:37;;;;;;;0.00;0.00;;;;;;;27.76;100.00;100604.00;10457949;28;20049;-82
2023/07/15 18:40:39;;;;;;;0.00;0.00;;;;;;;27.55;100.00;100601.53;10441363;28;20055;-82
2023/07/15 18:45:41;;;;;;;0.00;0.00;;;;;;;26.67;100.00;100591.63;10455021;28;20056;-82
2023/07/15 18:50:42;;;;;;;0.85;0.20;;;;;;;26.94;100.00;100586.84;10457478;28;20048;-82
2023/07/15 18:55:44;;;;;;;0.10;0.10;;;;;;;26.85;100.00;100595.22;10470992;28;20075;-82
2023/07/15 19:00:46;;;;;;;0.00;0.00;;;;;;;26.49;100.00;100607.38;10455772;28;20056;-82
2023/07/15 19:05:49;;;;;;;0.00;0.00;;;;;;;26.97;100.00;100620.22;10465326;28;20045;-82
2023/07/15 19:10:51;;;;;;;0.08;0.08;;;;;;;27.04;100.00;100648.06;10440087;28;20418;-83
2023/07/15 19:15:52;;;;;;;0.00;0.00;;;;;;;26.07;100.00;100634.75;10438271;28;20082;-82
2023/07/15 19:20:54;;;;;;;0.00;0.00;;;;;;;26.04;100.00;100587.34;10453836;28;20060;-81
2023/07/15 19:25:56;;;;;;;0.00;0.00;;;;;;;26.15;100.00;100632.66;10452474;28;20048;-82
2023/07/15 19:30:58;;;;;;;0.00;0.00;;;;;;;26.62;100.00;100638.53;10456394;28;20049;-83
2023/07/15 19:36:00;;;;;;;0.00;0.00;;;;;;;25.38;100.00;100667.47;10465952;28;20037;-83
2023/07/15 19:41:01;;;;;;;0.10;0.10;;;;;;;26.41;100.00;100654.41;10448353;28;20044;-83
2023/07/15 19:46:03;;;;;;;0.30;0.10;;;;;;;26.33;100.00;100657.41;10451637;28;20041;-83
2023/07/15 19:51:06;;;;;;;0.10;0.10;;;;;;;26.79;100.00;100654.50;10456244;28;20053;-83
2023/07/15 19:56:08;;;;;;;0.03;0.03;;;;;;;26.36;100.00;100633.47;10438084;28;20131;-84
2023/07/15 20:01:09;;;;;;;0.00;0.00;;;;;;;26.22;100.00;100649.97;10442966;28;20049;-84
2023/07/15 20:06:11;;;;;;;0.00;0.00;;;;;;;25.52;100.00;100644.06;10438199;28;20053;-85
2023/07/15 20:11:14;;;;;;;0.00;0.00;;;;;;;24.89;100.00;100655.28;10470240;28;20510;-83
2023/07/15 20:16:15;;;;;;;0.10;0.10;;;;;;;24.66;100.00;100670.19;10436979;28;20059;-83
2023/07/15 20:21:18;;;;;;;0.10;0.10;;;;;;;24.06;100.00;100683.66;10441114;28;20079;-84
2023/07/15 20:26:19;;;;;;;0.22;0.08;;;;;;;23.94;100.00;100691.94;10437362;28;20041;-83
2023/07/15 20:31:21;;;;;;;0.10;0.10;;;;;;;24.54;100.00;100686.38;10420678;28;21303;-83
2023/07/15 20:36:22;;;;;;;0.00;0.00;;;;;;;25.39;100.00;100685.91;10439812;28;20045;-84
2023/07/15 20:41:24;;;;;;;0.03;0.03;;;;;;;25.15;100.00;100692.94;10434923;28;20057;-83
2023/07/15 20:46:26;;;;;;;0.00;0.00;;;;;;;25.02;100.00;100717.16;10452448;28;20044;-83
2023/07/15 20:51:28;;;;;;;0.03;0.03;;;;;;;24.53;100.00;100732.09;10434228;28;20415;-83
2023/07/15 20:56:29;;;;;;;0.00;0.00;;;;;;;25.01;100.00;100723.34;10433814;28;20122;-84
2023/07/15 21:01:31;;;;;;;0.00;0.00;;;;;;;24.95;100.00;100734.09;10435648;28;20068;-83
2023/07/15 21:06:33;;;;;;;0.38;0.22;;;;;;;24.95;100.00;100733.22;10453259;28;20502;-83
2023/07/15 21:11:34;;;;;;;0.00;0.00;;;;;;;24.95;100.00;100744.66;10436745;28;20064;-83
2023/07/15 21:16:36;;;;;;;0.10;0.00;;;;;;;25.27;100.00;100733.81;10434608;28;20137;-83
2023/07/15 21:21:38;;;;;;;0.10;0.00;;;;;;;25.09;100.00;100746.78;10452049;28;20071;-83
2023/07/15 21:26:39;;;;;;;0.30;0.28;;;;;;;24.49;100.00;100751.53;10452973;28;20063;-84
2023/07/15 21:31:41;;;;;;;0.10;0.10;;;;;;;24.58;100.00;100759.09;10436188;28;20546;-83
2023/07/15 21:36:43;;;;;;;0.10;0.10;;;;;;;24.82;100.00;100761.81;10467069;28;20045;-84
2023/07/15 21:41:44;;;;;;;0.17;0.15;;;;;;;24.80;100.00;100761.84;10433775;28;20049;-84
2023/07/15 21:46:46;;;;;;;0.00;0.00;;;;;;;24.57;100.00;100767.91;10467480;28;20040;-84
2023/07/15 21:51:48;;;;;;;0.80;0.55;;;;;;;24.58;100.00;100772.28;10433759;28;20059;-84
2023/07/15 21:56:49;;;;;;;1.55;1.40;;;;;;;24.64;100.00;100782.59;10433873;28;20500;-84
2023/07/15 22:02:16;;;;;;;0.47;0.00;;;;;;;24.79;100.00;100780.38;10451694;28;20061;-84
2023/07/15 22:07:18;;;;;;;1.23;0.43;;;;;;;25.17;100.00;100764.94;10463098;28;20049;-83
2023/07/15 22:12:20;;;;;;;0.20;0.20;;;;;;;25.39;100.00;100775.56;10423801;28;20515;-83
2023/07/15 22:17:21;;;;;;;0.05;0.00;;;;;;;25.02;100.00;100793.56;10450021;28;20056;-83
2023/07/15 22:22:23;;;;;;;0.10;0.03;;;;;;;24.65;100.00;100805.38;10435446;28;20076;-84
2023/07/15 22:27:24;;;;;;;0.15;0.15;;;;;;;24.80;100.00;100800.53;10434291;28;20511;-83
2023/07/15 22:32:26;;;;;;;0.10;0.10;;;;;;;24.83;100.00;100826.78;10434003;28;20053;-82
2023/07/15 22:37:28;;;;;;;0.75;0.43;;;;;;;24.91;100.00;100816.81;10434715;28;20045;-83
2023/07/15 22:42:30;;;;;;;0.38;0.17;;;;;;;24.96;100.00;100806.97;10451801;28;20148;-84
2023/07/15 22:47:31;;;;;;;0.10;0.10;;;;;;;25.53;100.00;100795.28;10430842;28;20049;-83
2023/07/15 22:52:33;;;;;;;0.05;0.05;;;;;;;25.35;100.00;100826.66;10447740;28;20052;-83
2023/07/15 22:57:37;;;;;;;0.15;0.15;;;;;;;25.39;100.00;100827.44;10467950;28;20052;-83